Time;durP1;ratioP1;P1;durP2;ratioP2;P2;SDS_P1;SDS_P2;PMS_P1;PMS_P2;Temp;Humidity;BMP_temperature;BMP_pressure;BME280_temperature;BME280_humidity;BME280_pressure;Samples;Min_cycle;Max_cycle;Signal;HPM_P1;HPM_P2
2022/06/09 00:00:49;;;;;;;3.28;2.80;;;15.60;99.90;;;;;;5074305;28;20188;-64
2022/06/09 00:03:23;;;;;;;2.42;2.22;;;15.50;99.90;;;;;;5072656;28;20181;-64
2022/06/09 00:05:49;;;;;;;2.58;2.38;;;15.50;99.90;;;;;;5074013;28;20180;-64
2022/06/09 00:08:16;;;;;;;2.63;2.33;;;15.50;99.90;;;;;;5073440;28;20548;-64
2022/06/09 00:10:49;;;;;;;5.00;2.20;;;15.40;99.90;;;;;;5073727;28;20176;-64
2022/06/09 00:13:14;;;;;;;3.00;2.13;;;15.50;99.90;;;;;;5073588;28;20181;-64
2022/06/09 00:15:40;;;;;;;2.88;2.20;;;15.50;99.90;;;;;;5073749;28;20184;-64
2022/06/09 00:18:05;;;;;;;3.00;2.50;;;15.40;99.90;;;;;;5073041;28;20227;-64
2022/06/09 00:20:31;;;;;;;5.82;2.10;;;15.40;99.90;;;;;;5073573;28;20191;-64
2022/06/09 00:22:56;;;;;;;3.30;2.35;;;15.40;99.90;;;;;;5072673;28;20188;-64
2022/06/09 00:25:22;;;;;;;3.30;2.45;;;15.50;99.90;;;;;;5072793;28;20255;-64
2022/06/09 00:27:47;;;;;;;2.95;2.22;;;15.50;99.90;;;;;;5072398;28;20268;-64
2022/06/09 00:30:18;;;;;;;4.60;2.47;;;15.50;99.90;;;;;;5072409;28;20184;-64
2022/06/09 00:32:44;;;;;;;5.30;2.20;;;15.50;99.90;;;;;;5072758;28;20648;-64
2022/06/09 00:35:10;;;;;;;2.33;2.10;;;15.50;99.90;;;;;;5073088;28;20275;-64
2022/06/09 00:37:36;;;;;;;3.92;2.00;;;15.50;99.90;;;;;;5072243;28;20295;-64
2022/06/09 00:40:04;;;;;;;2.60;2.00;;;15.50;99.90;;;;;;5072676;28;20180;-64
2022/06/09 00:42:32;;;;;;;1.98;1.83;;;15.40;99.90;;;;;;5072438;28;20284;-64
2022/06/09 00:45:21;;;;;;;2.20;2.00;;;15.40;99.90;;;;;;5072356;28;20185;-63
2022/06/09 00:47:46;;;;;;;3.95;1.90;;;15.50;99.90;;;;;;5073070;28;20173;-64
2022/06/09 00:50:17;;;;;;;2.95;2.25;;;15.50;99.90;;;;;;5072533;28;20188;-64
2022/06/09 00:52:48;;;;;;;2.92;2.10;;;15.50;99.90;;;;;;5072815;28;20188;-63
2022/06/09 00:55:18;;;;;;;2.97;2.10;;;15.50;99.90;;;;;;5059215;28;20196;-64
2022/06/09 00:57:48;;;;;;;2.80;2.15;;;15.50;99.90;;;;;;5072404;28;20216;-63
2022/06/09 01:00:18;;;;;;;1.73;1.63;;;15.50;99.90;;;;;;5052894;28;20282;-63
2022/06/09 01:02:45;;;;;;;2.05;1.55;;;15.40;99.90;;;;;;5056844;28;20185;-64
2022/06/09 01:05:14;;;;;;;2.58;1.63;;;15.40;99.90;;;;;;5072563;28;20189;-64
2022/06/09 01:07:46;;;;;;;2.17;1.77;;;15.30;99.90;;;;;;5072639;28;20192;-64
2022/06/09 01:10:12;;;;;;;3.63;1.65;;;15.30;99.90;;;;;;5072472;28;20675;-64
2022/06/09 01:12:41;;;;;;;2.35;1.80;;;15.20;99.90;;;;;;5072307;28;20208;-64
2022/06/09 01:15:17;;;;;;;4.00;1.50;;;15.20;99.90;;;;;;5072192;28;20213;-64
2022/06/09 01:17:54;;;;;;;2.45;1.70;;;15.20;99.90;;;;;;5071562;28;20212;-64
2022/06/09 01:20:35;;;;;;;3.40;1.60;;;15.20;99.90;;;;;;5071868;28;20663;-64
2022/06/09 01:23:33;;;;;;;1.63;1.52;;;15.20;99.90;;;;;;5065802;28;20191;-64
2022/06/09 01:26:17;;;;;;;1.95;1.50;;;15.20;99.90;;;;;;5054883;28;20176;-64
2022/06/09 01:29:32;;;;;;;1.70;1.55;;;15.10;99.90;;;;;;5071268;28;20207;-64
2022/06/09 01:32:35;;;;;;;1.50;1.40;;;15.00;99.90;;;;;;5067818;28;20246;-63
2022/06/09 01:35:19;;;;;;;2.28;1.52;;;15.00;99.90;;;;;;5009400;28;20182;-64
2022/06/09 01:37:48;;;;;;;1.83;1.48;;;15.00;99.90;;;;;;5063658;28;20220;-64
2022/06/09 01:40:16;;;;;;;1.50;1.40;;;15.00;99.90;;;;;;5071270;28;20230;-64
2022/06/09 01:42:45;;;;;;;1.65;1.48;;;14.90;99.90;;;;;;5070726;28;20272;-64
2022/06/09 01:45:21;;;;;;;2.70;1.80;;;14.90;99.90;;;;;;5070823;28;20666;-64
2022/06/09 01:48:02;;;;;;;2.35;1.70;;;14.90;99.90;;;;;;5071585;28;20261;-63
2022/06/09 01:50:50;;;;;;;2.50;1.50;;;14.80;99.90;;;;;;5070616;28;20234;-63
2022/06/09 01:53:27;;;;;;;1.60;1.50;;;14.80;99.90;;;;;;5051357;28;20186;-64
2022/06/09 01:55:58;;;;;;;2.72;2.47;;;14.80;99.90;;;;;;5051258;28;20188;-64
2022/06/09 01:58:29;;;;;;;2.55;1.45;;;14.70;99.90;;;;;;5055623;28;20209;-63
2022/06/09 02:00:59;;;;;;;1.70;1.50;;;14.70;99.90;;;;;;5071096;28;20184;-64
2022/06/09 02:03:33;;;;;;;2.22;1.50;;;14.70;99.90;;;;;;5070460;28;20192;-63
2022/06/09 02:06:00;;;;;;;2.90;1.60;;;14.70;99.90;;;;;;5069991;28;20180;-63
2022/06/09 02:08:29;;;;;;;3.17;1.63;;;14.60;99.90;;;;;;5070339;28;20165;-64
2022/06/09 02:10:59;;;;;;;1.60;1.30;;;14.60;99.90;;;;;;5069075;28;20716;-63
2022/06/09 02:13:29;;;;;;;1.83;1.60;;;14.60;99.90;;;;;;5070390;28;20172;-64
2022/06/09 02:15:59;;;;;;;1.55;1.40;;;14.60;99.90;;;;;;5069945;28;20226;-63
2022/06/09 02:18:28;;;;;;;1.40;1.30;;;14.60;99.90;;;;;;5033309;28;1047852;-64
2022/06/09 02:20:58;;;;;;;2.10;1.25;;;14.50;99.90;;;;;;5071522;28;20267;-64
2022/06/09 02:23:24;;;;;;;4.97;1.40;;;14.50;99.90;;;;;;5069772;28;20259;-63
2022/06/09 02:25:50;;;;;;;2.30;1.50;;;14.50;99.90;;;;;;5071691;28;20769;-63
2022/06/09 02:28:16;;;;;;;4.32;1.55;;;14.40;99.90;;;;;;5070750;28;20187;-63
2022/06/09 02:30:42;;;;;;;1.60;1.48;;;14.40;99.90;;;;;;5071757;28;20533;-64
2022/06/09 02:33:07;;;;;;;2.28;1.25;;;14.40;99.90;;;;;;5071050;28;20274;-63
2022/06/09 02:35:33;;;;;;;1.30;1.20;;;14.30;99.90;;;;;;5071687;28;20201;-63
2022/06/09 02:38:01;;;;;;;1.60;1.50;;;14.30;99.90;;;;;;5070460;28;20208;-64
2022/06/09 02:40:31;;;;;;;1.60;1.50;;;14.30;99.90;;;;;;5071931;28;20181;-64
2022/06/09 02:42:57;;;;;;;4.07;2.50;;;14.30;99.90;;;;;;5071059;28;20176;-64
2022/06/09 02:45:23;;;;;;;3.47;1.60;;;14.30;99.90;;;;;;5070963;28;20632;-63
2022/06/09 02:47:49;;;;;;;2.95;1.50;;;14.30;99.90;;;;;;5070978;28;20188;-64
2022/06/09 02:50:14;;;;;;;1.73;1.40;;;14.20;99.90;;;;;;5071223;28;20540;-63
2022/06/09 02:52:41;;;;;;;1.33;1.20;;;14.20;99.90;;;;;;5071650;28;20176;-64
2022/06/09 02:55:08;;;;;;;1.58;1.48;;;14.20;99.90;;;;;;5070887;28;20550;-63
2022/06/09 02:57:33;;;;;;;2.15;1.83;;;14.20;99.90;;;;;;5071047;28;20235;-64
2022/06/09 02:59:59;;;;;;;4.40;1.40;;;14.20;99.90;;;;;;5069142;28;20730;-64
2022/06/09 03:02:24;;;;;;;1.45;1.33;;;14.20;99.90;;;;;;5071574;28;20232;-64
2022/06/09 03:04:50;;;;;;;2.72;1.38;;;14.20;99.90;;;;;;5070891;28;20210;-64
2022/06/09 03:07:16;;;;;;;2.50;1.70;;;14.20;99.90;;;;;;5070877;28;20184;-64
2022/06/09 03:09:42;;;;;;;7.13;1.40;;;14.20;99.90;;;;;;5070184;28;20180;-64
2022/06/09 03:12:09;;;;;;;3.72;1.38;;;14.10;99.90;;;;;;5070872;28;20644;-64
2022/06/09 03:14:35;;;;;;;3.50;1.60;;;14.10;99.90;;;;;;5070453;28;20556;-64
2022/06/09 03:17:02;;;;;;;6.18;1.77;;;14.20;99.90;;;;;;5070403;28;20236;-64
2022/06/09 03:19:28;;;;;;;1.40;1.30;;;14.10;99.90;;;;;;5073991;28;20621;-64
2022/06/09 03:21:54;;;;;;;2.15;1.95;;;14.10;99.90;;;;;;5075003;28;20173;-64
2022/06/09 03:24:20;;;;;;;2.00;1.40;;;14.10;99.90;;;;;;5073852;28;20192;-64
2022/06/09 03:26:46;;;;;;;2.00;1.70;;;14.10;99.90;;;;;;5074381;28;20184;-63
2022/06/09 03:29:12;;;;;;;4.28;1.55;;;14.10;99.90;;;;;;5073696;28;20250;-63
2022/06/09 03:31:37;;;;;;;3.13;1.70;;;14.10;99.90;;;;;;5074102;28;20647;-64
2022/06/09 03:34:03;;;;;;;1.83;1.50;;;14.10;99.90;;;;;;5074473;28;20207;-63
2022/06/09 03:36:31;;;;;;;1.75;1.55;;;14.10;99.90;;;;;;5073766;28;20264;-64
2022/06/09 03:38:58;;;;;;;1.75;1.40;;;14.10;99.90;;;;;;5073735;28;20216;-64
2022/06/09 03:41:23;;;;;;;2.58;1.95;;;14.10;99.90;;;;;;5073699;28;20199;-64
2022/06/09 03:43:49;;;;;;;2.08;1.92;;;14.10;99.90;;;;;;5074189;28;20531;-64
2022/06/09 03:46:14;;;;;;;4.50;2.03;;;14.10;99.90;;;;;;5073736;28;20687;-64
2022/06/09 03:48:40;;;;;;;3.58;2.00;;;14.10;99.90;;;;;;5074255;28;20188;-63
2022/06/09 03:51:06;;;;;;;5.38;2.13;;;14.10;99.90;;;;;;5072314;28;20177;-64
2022/06/09 03:53:31;;;;;;;3.50;2.33;;;14.10;99.90;;;;;;5073430;28;20169;-65
2022/06/09 03:55:57;;;;;;;7.65;2.38;;;14.10;99.90;;;;;;5073635;28;20177;-64
2022/06/09 03:58:23;;;;;;;3.05;2.35;;;14.10;99.90;;;;;;5073330;28;20242;-64
2022/06/09 04:00:49;;;;;;;6.72;2.17;;;14.10;99.90;;;;;;5072079;28;20173;-65
2022/06/09 04:03:14;;;;;;;2.88;2.33;;;14.10;99.90;;;;;;5073476;28;20185;-64
2022/06/09 04:05:40;;;;;;;2.88;2.65;;;14.10;99.90;;;;;;5069789;28;20184;-61
2022/06/09 04:08:06;;;;;;;3.33;2.03;;;14.10;99.90;;;;;;5071755;28;20188;-62
2022/06/09 04:10:33;;;;;;;4.07;2.22;;;14.10;99.90;;;;;;5070939;28;20169;-63
2022/06/09 04:12:59;;;;;;;2.75;2.22;;;14.10;99.90;;;;;;5053970;28;20191;-61
2022/06/09 04:15:26;;;;;;;4.30;2.20;;;14.10;99.90;;;;;;5073285;28;20220;-61
2022/06/09 04:17:52;;;;;;;5.40;2.25;;;14.10;99.90;;;;;;5073013;28;20259;-62
2022/06/09 04:20:20;;;;;;;2.80;2.00;;;14.10;99.90;;;;;;5062844;28;20221;-60
2022/06/09 04:22:45;;;;;;;3.97;2.00;;;14.10;99.90;;;;;;5066488;28;20181;-61
2022/06/09 04:25:12;;;;;;;3.72;2.03;;;14.10;99.90;;;;;;5073126;28;20189;-61
2022/06/09 04:27:38;;;;;;;3.92;2.40;;;14.10;99.90;;;;;;5072622;28;20188;-62
2022/06/09 04:30:04;;;;;;;6.50;2.65;;;14.10;99.90;;;;;;5071910;28;20172;-62
2022/06/09 04:32:30;;;;;;;2.20;2.00;;;14.10;99.90;;;;;;5073259;28;20183;-62
2022/06/09 04:34:55;;;;;;;3.13;2.03;;;14.10;99.90;;;;;;5073240;28;20248;-62
2022/06/09 04:37:59;;;;;;;6.30;1.90;;;14.10;99.90;;;;;;5072519;28;20286;-61
2022/06/09 04:40:07;;;;;;;3.58;1.95;;;14.10;99.90;;;;;;5072311;28;20593;-61
2022/06/09 04:42:33;;;;;;;2.13;1.92;;;14.10;99.90;;;;;;5072667;28;20181;-62
2022/06/09 04:44:58;;;;;;;3.22;2.28;;;14.10;99.90;;;;;;5062496;28;20161;-62
2022/06/09 04:47:24;;;;;;;3.15;1.90;;;14.10;99.90;;;;;;5071426;28;20683;-63
2022/06/09 04:49:49;;;;;;;4.55;2.00;;;14.10;99.90;;;;;;5071637;28;20237;-62
2022/06/09 04:52:15;;;;;;;5.05;2.17;;;14.20;99.90;;;;;;5072527;28;20686;-60
2022/06/09 04:54:40;;;;;;;3.60;2.63;;;14.20;99.90;;;;;;5073147;28;20272;-61
2022/06/09 04:57:06;;;;;;;3.53;1.90;;;14.30;99.90;;;;;;5072483;28;20527;-60
2022/06/09 04:59:31;;;;;;;2.85;2.38;;;14.50;99.90;;;;;;5073161;28;20185;-60
2022/06/09 05:01:57;;;;;;;3.38;1.95;;;14.80;99.90;;;;;;5073039;28;20650;-60
2022/06/09 05:04:23;;;;;;;4.55;2.10;;;15.00;99.90;;;;;;5073170;28;20635;-60
2022/06/09 05:06:48;;;;;;;5.00;1.90;;;15.20;99.90;;;;;;5073104;28;20173;-60
2022/06/09 05:09:15;;;;;;;3.17;1.65;;;15.20;99.90;;;;;;5072848;28;20540;-60
2022/06/09 05:11:42;;;;;;;3.50;1.80;;;15.10;99.90;;;;;;5072971;28;20184;-60
2022/06/09 05:14:07;;;;;;;5.38;1.90;;;15.00;99.90;;;;;;5072862;28;20217;-60
2022/06/09 05:16:33;;;;;;;3.90;2.15;;;14.90;99.90;;;;;;5072858;28;20254;-60
2022/06/09 05:18:58;;;;;;;3.25;2.20;;;14.80;99.90;;;;;;5072401;28;20307;-60
2022/06/09 05:21:24;;;;;;;8.38;2.00;;;14.80;99.90;;;;;;5072886;28;20256;-60
2022/06/09 05:23:49;;;;;;;4.35;2.58;;;14.70;99.90;;;;;;5072673;28;20619;-60
2022/06/09 05:26:16;;;;;;;5.68;2.10;;;14.80;99.90;;;;;;5072273;28;20223;-60
2022/06/09 05:28:41;;;;;;;5.70;2.30;;;14.80;99.90;;;;;;5072580;28;20529;-60
2022/06/09 05:31:07;;;;;;;5.22;2.20;;;14.90;99.90;;;;;;5072528;28;20173;-60
2022/06/09 05:33:32;;;;;;;5.38;2.20;;;14.80;99.90;;;;;;5072332;28;20173;-60
2022/06/09 05:35:58;;;;;;;4.57;2.20;;;14.80;99.90;;;;;;5072313;28;20200;-60
2022/06/09 05:46:43;;;;;;;7.70;4.20;;;14.90;99.90;;;;;;5072759;28;20180;-60
2022/06/09 05:49:09;;;;;;;3.85;3.50;;;15.00;99.90;;;;;;5072332;28;20177;-60
2022/06/09 05:51:35;;;;;;;9.45;4.45;;;15.20;99.90;;;;;;5072431;28;20181;-60
2022/06/09 05:54:01;;;;;;;6.82;4.18;;;15.30;99.90;;;;;;5072312;28;20266;-60
2022/06/09 05:56:27;;;;;;;4.43;3.72;;;15.50;99.90;;;;;;5072355;28;20624;-60
2022/06/09 05:58:52;;;;;;;5.57;3.88;;;15.80;99.90;;;;;;5072201;28;20217;-60
2022/06/09 06:01:18;;;;;;;4.50;3.05;;;15.90;99.90;;;;;;5072188;28;20180;-60
2022/06/09 06:03:44;;;;;;;9.23;3.42;;;15.80;99.90;;;;;;5072321;28;20176;-60
2022/06/09 06:08:54;;;;;;;4.10;3.38;;;15.90;99.90;;;;;;5072463;28;20329;-60
2022/06/09 06:11:19;;;;;;;6.28;3.65;;;16.10;99.90;;;;;;5072307;28;20680;-60
2022/06/09 06:13:46;;;;;;;6.50;3.35;;;16.20;99.90;;;;;;5072193;28;20632;-60
2022/06/09 06:16:12;;;;;;;4.13;2.60;;;16.30;99.90;;;;;;5072094;28;20177;-60
2022/06/09 06:18:37;;;;;;;11.63;3.33;;;16.40;99.90;;;;;;5071868;28;20598;-60
2022/06/09 06:21:03;;;;;;;3.88;2.38;;;16.40;99.90;;;;;;5072096;28;20214;-60
2022/06/09 06:23:28;;;;;;;4.13;2.63;;;16.40;99.90;;;;;;5072065;28;20180;-60
2022/06/09 06:25:56;;;;;;;6.72;3.15;;;16.40;99.90;;;;;;5071905;28;20169;-60
2022/06/09 06:28:22;;;;;;;6.22;2.40;;;16.40;99.90;;;;;;5072059;28;20223;-60
2022/06/09 06:30:49;;;;;;;3.72;2.10;;;16.30;99.90;;;;;;5072032;28;20177;-60
2022/06/09 06:33:15;;;;;;;5.97;2.00;;;16.20;99.90;;;;;;5071859;28;20560;-60
2022/06/09 06:35:40;;;;;;;6.25;2.50;;;16.30;99.90;;;;;;5071990;28;20180;-60
2022/06/09 06:38:06;;;;;;;6.93;2.15;;;16.40;99.90;;;;;;5071789;28;20254;-60
2022/06/09 06:40:31;;;;;;;2.90;2.03;;;16.50;99.90;;;;;;5072027;28;20263;-60
2022/06/09 06:42:57;;;;;;;5.20;2.00;;;16.60;99.90;;;;;;5071780;28;20331;-60
2022/06/09 06:45:23;;;;;;;5.10;2.67;;;16.60;99.90;;;;;;5071779;28;20226;-60
2022/06/09 06:47:49;;;;;;;5.07;2.50;;;16.60;99.90;;;;;;5072039;28;20173;-60
2022/06/09 06:50:14;;;;;;;3.60;2.30;;;17.00;99.90;;;;;;5071625;28;20208;-60
2022/06/09 06:52:40;;;;;;;5.32;2.47;;;17.40;99.90;;;;;;5072362;28;20180;-60
2022/06/09 06:55:10;;;;;;;5.63;3.08;;;17.70;99.90;;;;;;5075510;28;20503;-60
2022/06/09 06:57:36;;;;;;;7.03;2.30;;;18.00;99.90;;;;;;5075319;28;20733;-60
2022/06/09 07:00:03;;;;;;;5.68;2.33;;;18.50;99.90;;;;;;5075453;28;20165;-60
2022/06/09 07:02:28;;;;;;;4.05;1.88;;;18.60;99.90;;;;;;5075525;28;20255;-60
2022/06/09 07:04:54;;;;;;;6.95;2.00;;;18.40;99.90;;;;;;5075365;28;20624;-59
2022/06/09 07:07:19;;;;;;;2.97;1.80;;;18.00;99.90;;;;;;5075357;28;20172;-60
2022/06/09 07:09:45;;;;;;;3.40;1.80;;;17.80;99.90;;;;;;5075346;28;20173;-60
2022/06/09 07:12:10;;;;;;;5.53;2.05;;;17.60;99.90;;;;;;5075167;28;20176;-59
2022/06/09 07:14:36;;;;;;;3.13;2.28;;;17.70;99.90;;;;;;5075102;28;20173;-60
2022/06/09 07:17:02;;;;;;;4.97;1.95;;;17.90;99.90;;;;;;5075101;28;20175;-59
2022/06/09 07:19:29;;;;;;;5.90;1.70;;;18.00;99.90;;;;;;5075061;28;20759;-60
2022/06/09 07:21:55;;;;;;;5.05;1.70;;;18.20;99.90;;;;;;5074966;28;20690;-60
2022/06/09 07:24:21;;;;;;;3.17;1.70;;;18.30;99.90;;;;;;5075094;28;20180;-60
2022/06/09 07:26:47;;;;;;;9.10;2.15;;;18.40;99.90;;;;;;5075057;28;20625;-60
2022/06/09 07:29:12;;;;;;;10.98;2.25;;;18.40;99.90;;;;;;5074954;28;20177;-59
2022/06/09 07:31:38;;;;;;;5.05;2.10;;;18.10;99.90;;;;;;5075179;28;20214;-60
2022/06/09 07:34:04;;;;;;;3.40;1.77;;;17.90;99.90;;;;;;5074834;28;20219;-59
2022/06/09 07:36:30;;;;;;;4.18;1.90;;;17.70;99.90;;;;;;5074919;28;20208;-59
2022/06/09 07:38:55;;;;;;;3.28;2.10;;;17.70;99.90;;;;;;5074531;28;20295;-60
2022/06/09 07:41:21;;;;;;;4.25;1.88;;;17.50;99.90;;;;;;5074644;28;20715;-60
2022/06/09 07:43:50;;;;;;;6.20;1.90;;;17.40;99.90;;;;;;5074678;28;20185;-59
2022/06/09 07:46:17;;;;;;;5.57;2.28;;;17.70;99.90;;;;;;5074531;28;20235;-59
2022/06/09 07:48:45;;;;;;;2.80;1.73;;;18.00;99.90;;;;;;5074666;28;20173;-60
2022/06/09 07:51:11;;;;;;;4.90;1.85;;;18.20;99.90;;;;;;5074455;28;20184;-59
2022/06/09 07:53:37;;;;;;;5.32;1.60;;;18.40;99.90;;;;;;5074483;28;20189;-59
2022/06/09 07:56:02;;;;;;;4.43;1.25;;;18.40;99.90;;;;;;5074398;28;20503;-59
2022/06/09 07:58:28;;;;;;;4.07;1.73;;;18.30;99.90;;;;;;5074314;28;20223;-59
2022/06/09 08:00:53;;;;;;;4.10;1.40;;;18.30;99.90;;;;;;5074318;28;20210;-60
2022/06/09 08:03:23;;;;;;;3.72;1.50;;;18.20;99.90;;;;;;5074245;28;20173;-60
2022/06/09 08:05:49;;;;;;;4.75;1.80;;;18.50;99.90;;;;;;5074338;28;20173;-60
2022/06/09 08:08:15;;;;;;;7.35;2.08;;;19.00;99.90;;;;;;5074108;28;20181;-60
2022/06/09 08:10:42;;;;;;;5.40;2.00;;;19.30;99.90;;;;;;5074476;28;20237;-60
2022/06/09 08:13:08;;;;;;;6.53;1.92;;;19.50;99.90;;;;;;5074128;28;20231;-60
2022/06/09 08:15:34;;;;;;;6.68;2.00;;;19.50;99.90;;;;;;5073943;28;20674;-60
2022/06/09 08:18:01;;;;;;;3.20;1.40;;;19.70;99.90;;;;;;5073664;28;20230;-60
2022/06/09 08:20:29;;;;;;;6.20;1.42;;;20.00;99.90;;;;;;5074232;28;20220;-61
2022/06/09 08:23:09;;;;;;;5.35;1.55;;;20.60;99.90;;;;;;5074057;28;20181;-61
2022/06/09 08:25:35;;;;;;;7.22;1.63;;;20.90;99.90;;;;;;5073951;28;20218;-61
2022/06/09 08:28:03;;;;;;;6.35;1.58;;;20.60;99.90;;;;;;5073882;28;20179;-61
2022/06/09 08:30:30;;;;;;;4.50;1.30;;;20.40;99.90;;;;;;5073783;28;20674;-61
2022/06/09 08:32:59;;;;;;;5.15;1.67;;;20.00;99.90;;;;;;5072335;28;20208;-61
2022/06/09 08:35:26;;;;;;;2.38;1.33;;;19.80;99.90;;;;;;5073707;28;20177;-61
2022/06/09 08:37:51;;;;;;;7.03;1.27;;;20.20;99.90;;;;;;5073458;28;20204;-61
2022/06/09 08:40:26;;;;;;;3.58;1.42;;;20.50;99.90;;;;;;5073549;28;20181;-61
2022/06/09 08:43:09;;;;;;;6.13;1.25;;;20.90;99.90;;;;;;5073523;28;20176;-61
2022/06/09 08:45:40;;;;;;;4.72;1.45;;;21.30;99.60;;;;;;5073507;28;20180;-61
2022/06/09 08:48:10;;;;;;;4.22;1.30;;;21.60;99.90;;;;;;5072183;28;20191;-60
2022/06/09 08:50:41;;;;;;;5.10;1.40;;;22.10;98.70;;;;;;5073508;28;20235;-60
2022/06/09 08:53:19;;;;;;;4.22;1.20;;;21.70;98.30;;;;;;5073414;28;20540;-60
2022/06/09 08:55:52;;;;;;;3.47;1.40;;;21.20;98.30;;;;;;5073378;28;20173;-61
2022/06/09 08:58:32;;;;;;;2.35;1.40;;;20.60;98.80;;;;;;5073245;28;20247;-60
2022/06/09 09:01:06;;;;;;;3.78;1.27;;;20.80;99.70;;;;;;5073118;28;20251;-60
2022/06/09 09:03:42;;;;;;;4.78;1.50;;;21.10;99.10;;;;;;5073475;28;20176;-61
2022/06/09 09:06:33;;;;;;;5.47;1.50;;;21.10;98.60;;;;;;5073127;28;20180;-61
2022/06/09 09:09:11;;;;;;;9.27;1.58;;;21.00;99.30;;;;;;5073486;28;20176;-61
2022/06/09 09:12:01;;;;;;;3.33;1.35;;;21.00;98.70;;;;;;5072943;28;20212;-61
2022/06/09 09:14:41;;;;;;;3.00;1.58;;;21.10;98.60;;;;;;5072877;28;20172;-61
2022/06/09 09:17:48;;;;;;;5.72;1.60;;;21.50;98.50;;;;;;5072329;28;20178;-59
2022/06/09 09:20:26;;;;;;;4.60;1.40;;;22.30;97.80;;;;;;5072673;28;20236;-60
2022/06/09 09:23:20;;;;;;;5.68;1.73;;;22.70;95.30;;;;;;5071663;28;20177;-60
2022/06/09 09:26:28;;;;;;;2.92;1.50;;;22.50;95.40;;;;;;5071758;28;20185;-60
2022/06/09 09:29:05;;;;;;;4.53;2.10;;;22.20;94.80;;;;;;5072709;28;20259;-59
2022/06/09 09:31:42;;;;;;;4.95;1.60;;;21.90;95.90;;;;;;5072648;28;20225;-60
2022/06/09 09:34:22;;;;;;;4.53;2.10;;;22.20;94.40;;;;;;5072640;28;20191;-61
2022/06/09 09:36:51;;;;;;;5.85;1.50;;;22.20;93.80;;;;;;5071468;28;20655;-58
2022/06/09 09:39:23;;;;;;;5.55;1.38;;;22.60;93.70;;;;;;5072394;28;20212;-60
2022/06/09 09:41:55;;;;;;;6.65;1.88;;;22.40;93.00;;;;;;5072599;28;20181;-60
2022/06/09 09:44:26;;;;;;;5.00;1.20;;;22.30;93.50;;;;;;5072765;28;20173;-60
2022/06/09 09:46:56;;;;;;;3.65;1.15;;;22.10;92.40;;;;;;5072685;28;20533;-60
2022/06/09 09:49:48;;;;;;;2.95;1.17;;;22.10;92.40;;;;;;5072418;28;20255;-61
2022/06/09 09:52:45;;;;;;;1.75;1.13;;;21.90;91.20;;;;;;5071909;28;20213;-61
2022/06/09 09:55:39;;;;;;;4.07;1.20;;;21.80;92.30;;;;;;5072360;28;20176;-61
2022/06/09 09:58:28;;;;;;;2.53;1.38;;;22.00;92.30;;;;;;5072194;28;20201;-60
2022/06/09 10:01:04;;;;;;;3.55;1.55;;;22.10;92.20;;;;;;5072275;28;20256;-61
2022/06/09 10:09:20;;;;;;;3.70;1.13;;;22.80;91.50;;;;;;5072161;28;20655;-61
2022/06/09 10:11:55;;;;;;;1.67;0.90;;;23.50;90.90;;;;;;5072406;28;20176;-61
2022/06/09 10:14:42;;;;;;;5.60;1.00;;;24.00;88.50;;;;;;5072162;28;20167;-60
2022/06/09 10:17:36;;;;;;;2.92;0.93;;;24.40;87.20;;;;;;5072072;28;20191;-61
2022/06/09 10:20:13;;;;;;;3.42;1.10;;;24.40;84.80;;;;;;5071941;28;20358;-61
2022/06/09 10:22:42;;;;;;;5.95;1.10;;;24.10;84.90;;;;;;5072162;28;20172;-61
2022/06/09 10:25:16;;;;;;;5.03;1.17;;;23.80;83.50;;;;;;5072009;28;20173;-61
2022/06/09 10:27:45;;;;;;;1.50;1.10;;;23.80;85.90;;;;;;5072764;28;20172;-61
2022/06/09 10:30:48;;;;;;;3.30;1.13;;;24.20;82.10;;;;;;5076032;28;20177;-61
2022/06/09 10:33:36;;;;;;;5.53;1.42;;;24.40;81.60;;;;;;5071089;28;20189;-61
2022/06/09 10:36:24;;;;;;;4.53;2.03;;;23.80;82.80;;;;;;5075882;28;20208;-61
2022/06/09 10:38:58;;;;;;;3.03;0.98;;;23.30;84.10;;;;;;5075988;28;20213;-60
2022/06/09 10:41:51;;;;;;;4.70;1.13;;;23.00;84.50;;;;;;5075880;28;20627;-60
2022/06/09 10:44:26;;;;;;;4.10;0.98;;;22.80;85.50;;;;;;5075684;28;20177;-60
2022/06/09 10:56:13;;;;;;;3.75;1.05;;;24.60;81.60;;;;;;5076246;28;20179;-61
2022/06/09 10:58:53;;;;;;;3.58;0.88;;;25.20;81.10;;;;;;5074208;28;20217;-61
2022/06/09 11:01:24;;;;;;;6.05;1.25;;;25.50;77.60;;;;;;5075468;28;20170;-59
2022/06/09 11:03:51;;;;;;;3.90;0.90;;;25.60;75.50;;;;;;5075571;28;20204;-58
2022/06/09 11:06:19;;;;;;;3.25;0.90;;;25.80;76.50;;;;;;5075363;28;20173;-60
2022/06/09 11:09:14;;;;;;;2.10;0.88;;;26.00;74.30;;;;;;5075502;28;20219;-59
2022/06/09 11:11:53;;;;;;;3.70;1.17;;;26.10;72.60;;;;;;5075474;28;20177;-60
2022/06/09 11:14:37;;;;;;;3.55;0.95;;;25.90;74.30;;;;;;5075349;28;20181;-60
2022/06/09 11:17:12;;;;;;;2.58;0.90;;;25.70;73.30;;;;;;5075088;28;20173;-60
2022/06/09 11:19:46;;;;;;;3.10;1.13;;;25.60;72.40;;;;;;5074944;28;20307;-60
2022/06/09 11:22:18;;;;;;;2.55;0.95;;;25.60;76.20;;;;;;5075097;28;20184;-60
2022/06/09 11:25:06;;;;;;;3.42;0.70;;;25.50;72.20;;;;;;5075285;28;20180;-60
2022/06/09 11:28:09;;;;;;;5.47;1.90;;;25.50;71.30;;;;;;5075051;28;20185;-60
2022/06/09 11:30:37;;;;;;;3.15;1.15;;;25.10;70.80;;;;;;5069889;28;20216;-59
2022/06/09 11:33:32;;;;;;;3.65;0.93;;;24.80;72.80;;;;;;5074899;28;20282;-61
2022/06/09 11:36:13;;;;;;;2.55;0.98;;;25.00;74.60;;;;;;5074826;28;20636;-60
2022/06/09 11:39:12;;;;;;;3.42;0.90;;;25.30;74.90;;;;;;5074444;28;20224;-60
2022/06/09 11:42:02;;;;;;;3.53;0.95;;;25.50;73.20;;;;;;5074926;28;20169;-61
2022/06/09 11:44:35;;;;;;;4.22;1.20;;;25.70;72.80;;;;;;5074969;28;20177;-61
2022/06/09 11:47:32;;;;;;;3.72;1.00;;;25.60;73.70;;;;;;5074674;28;20177;-60
2022/06/09 11:50:04;;;;;;;5.63;1.55;;;25.70;73.00;;;;;;5074609;28;20196;-61
2022/06/09 11:52:44;;;;;;;3.00;1.33;;;25.50;72.70;;;;;;5074721;28;20173;-61
2022/06/09 11:55:28;;;;;;;4.80;1.17;;;25.40;71.20;;;;;;5074493;28;20193;-61
2022/06/09 11:57:54;;;;;;;3.95;1.45;;;25.30;72.10;;;;;;5074194;28;20671;-59
2022/06/09 12:00:26;;;;;;;2.63;1.50;;;25.30;72.60;;;;;;5074594;28;20185;-60
2022/06/09 12:03:16;;;;;;;3.42;1.33;;;25.20;72.50;;;;;;5074409;28;20662;-60
2022/06/09 12:05:53;;;;;;;2.17;1.33;;;25.10;72.40;;;;;;5074497;28;20184;-61
2022/06/09 12:08:33;;;;;;;2.63;1.33;;;25.30;73.50;;;;;;5074356;28;20176;-60
2022/06/09 12:11:18;;;;;;;5.03;1.60;;;25.60;70.80;;;;;;5074354;28;20183;-60
2022/06/09 12:14:18;;;;;;;7.47;2.40;;;25.60;71.50;;;;;;5074283;28;20527;-60
2022/06/09 12:16:59;;;;;;;3.60;1.70;;;25.50;68.80;;;;;;5069947;28;20196;-61
2022/06/09 12:19:29;;;;;;;4.60;1.60;;;25.20;72.50;;;;;;5072769;28;20607;-60
2022/06/09 12:22:17;;;;;;;5.70;1.75;;;25.10;71.80;;;;;;5072985;28;20215;-60
2022/06/09 12:25:07;;;;;;;2.90;1.38;;;25.40;72.40;;;;;;5073293;28;20184;-60
2022/06/09 12:27:38;;;;;;;4.43;1.55;;;25.80;69.70;;;;;;5072906;28;21032;-60
2022/06/09 12:30:24;;;;;;;3.75;1.60;;;25.90;67.30;;;;;;5073423;28;20180;-61
2022/06/09 12:33:13;;;;;;;5.20;1.80;;;25.90;68.80;;;;;;5073343;28;20187;-60
2022/06/09 12:35:53;;;;;;;4.65;1.60;;;25.50;68.30;;;;;;5072808;28;20227;-60
2022/06/09 12:38:53;;;;;;;2.03;1.40;;;25.50;68.20;;;;;;5070684;28;20216;-60
2022/06/09 12:41:30;;;;;;;2.45;1.38;;;25.70;71.80;;;;;;5053729;28;20170;-61
2022/06/09 12:44:17;;;;;;;5.43;1.58;;;25.90;68.90;;;;;;5064306;28;20180;-60
2022/06/09 12:46:43;;;;;;;2.72;1.30;;;26.00;67.30;;;;;;5073461;28;20173;-60
2022/06/09 12:49:33;;;;;;;3.95;1.58;;;26.10;66.30;;;;;;5073326;28;20173;-60
2022/06/09 12:51:58;;;;;;;4.85;1.48;;;26.30;64.60;;;;;;5072368;28;20184;-60
2022/06/09 12:54:31;;;;;;;5.45;1.70;;;26.30;65.80;;;;;;5073333;28;20636;-60
2022/06/09 12:57:20;;;;;;;3.85;1.40;;;26.10;64.40;;;;;;5072834;28;20252;-61
2022/06/09 12:59:58;;;;;;;2.78;1.40;;;25.80;64.70;;;;;;5072091;28;20216;-60
2022/06/09 13:02:25;;;;;;;3.95;1.30;;;25.60;66.30;;;;;;5073253;28;20212;-60
2022/06/09 13:05:01;;;;;;;2.65;1.08;;;25.70;67.00;;;;;;5073233;28;20176;-61
2022/06/09 13:07:33;;;;;;;3.08;1.23;;;25.90;65.30;;;;;;5073251;28;20267;-60
2022/06/09 13:10:08;;;;;;;3.00;1.00;;;25.70;63.90;;;;;;5071889;28;20180;-60
2022/06/09 13:12:50;;;;;;;1.90;1.08;;;25.50;64.90;;;;;;5072849;28;20193;-60
2022/06/09 13:15:34;;;;;;;3.80;1.23;;;25.60;64.80;;;;;;5072941;28;20209;-60
2022/06/09 13:18:19;;;;;;;4.65;1.20;;;25.80;66.40;;;;;;5072477;28;20205;-61
2022/06/09 13:21:00;;;;;;;2.83;1.20;;;26.10;65.00;;;;;;5072643;28;20188;-59
2022/06/09 13:23:28;;;;;;;2.65;0.88;;;26.00;63.40;;;;;;5072594;28;20181;-59
2022/06/09 13:25:54;;;;;;;3.92;1.15;;;25.90;64.00;;;;;;5072837;28;20227;-60
2022/06/09 13:28:39;;;;;;;3.33;1.10;;;25.90;65.90;;;;;;5072411;28;20208;-60
2022/06/09 13:31:24;;;;;;;1.70;1.10;;;26.00;63.10;;;;;;5070991;28;20272;-60
2022/06/09 13:33:56;;;;;;;5.30;1.08;;;26.00;62.00;;;;;;5070849;28;20260;-60
2022/06/09 13:36:30;;;;;;;3.47;1.40;;;25.80;62.40;;;;;;5072087;28;20184;-60